Terminal Aerodrome Forecast
Issued by NWS Bismarck, ND

Home | Current Version | Previous Version | Text Only | Print | Product List | Glossary Off
Versions: 1 2 3 4 5 6 7 8 9 10 11 12 13 14 15 16 17 18 19 20

000
FTUS43 KBIS 212346
TAFBIS
TAF
KBIS 212346Z 2200/2224 27013G21KT P6SM SCT060
     FM220300 26007KT P6SM FEW250
     FM221600 23015G23KT P6SM BKN200 WS006/23010KT=

USA.gov is the U.S. government's official web portal to all federal, state and local government web resources and services.